createdAt,value
2022-07-29T00:01:39.089Z,99745.75
2022-07-29T00:04:26.946Z,99757.25
2022-07-29T00:07:14.846Z,99755.69
2022-07-29T00:10:04.929Z,99766.13
2022-07-29T00:12:52.723Z,99774.81
2022-07-29T00:15:40.626Z,99778.41
2022-07-29T00:18:28.598Z,99790.59
2022-07-29T00:21:18.142Z,99817.31
2022-07-29T00:24:06.217Z,99752.53
2022-07-29T00:26:54.026Z,99801.59
2022-07-29T00:29:41.831Z,99819.00
2022-07-29T00:32:29.717Z,99817.94
2022-07-29T00:35:36.167Z,99810.84
2022-07-29T00:38:24.040Z,99817.25
2022-07-29T00:41:12.829Z,99809.00
2022-07-29T00:44:00.652Z,99804.66
2022-07-29T00:46:48.566Z,99799.53
2022-07-29T00:49:37.782Z,99807.03
2022-07-29T00:52:25.943Z,99798.63
2022-07-29T00:55:16.752Z,99796.78
2022-07-29T00:58:04.750Z,99793.06
2022-07-29T01:00:53.403Z,99795.16
2022-07-29T01:03:41.232Z,99766.78
2022-07-29T01:06:29.143Z,99747.69
2022-07-29T01:09:18.426Z,99773.69
2022-07-29T01:12:29.814Z,99760.94
2022-07-29T01:15:18.012Z,99768.88
2022-07-29T01:18:24.272Z,99766.06
2022-07-29T01:21:36.642Z,99760.25
2022-07-29T01:24:52.098Z,99765.84
2022-07-29T01:27:56.339Z,99733.25
2022-07-29T01:30:46.974Z,99750.84
2022-07-29T01:33:50.097Z,99726.28
2022-07-29T01:36:45.798Z,99752.28
2022-07-29T01:39:37.951Z,99744.34
2022-07-29T01:42:33.654Z,99747.44
2022-07-29T01:45:27.798Z,99734.78
2022-07-29T01:48:24.696Z,99730.31
2022-07-29T01:51:21.507Z,99734.19
2022-07-29T01:54:30.342Z,99736.53
2022-07-29T01:57:21.359Z,99735.41
2022-07-29T02:00:10.371Z,99750.41
2022-07-29T02:03:01.208Z,99734.66
2022-07-29T02:05:50.597Z,99743.41
2022-07-29T02:08:40.318Z,99727.06
2022-07-29T02:11:28.340Z,99742.19
2022-07-29T02:14:19.308Z,99738.66
2022-07-29T02:17:07.589Z,99726.94
2022-07-29T02:20:01.206Z,99725.41
2022-07-29T02:22:51.405Z,99727.81
2022-07-29T02:25:40.396Z,99725.78
2022-07-29T02:28:30.686Z,99709.41
2022-07-29T02:31:34.689Z,99715.25
2022-07-29T02:34:24.001Z,99710.94
2022-07-29T02:37:14.115Z,99712.13
2022-07-29T02:40:03.703Z,99715.16
2022-07-29T02:42:51.646Z,99711.06
2022-07-29T02:45:39.997Z,99714.91
2022-07-29T02:48:38.474Z,99716.66
2022-07-29T02:51:44.423Z,99710.56
2022-07-29T02:54:51.388Z,99719.88
2022-07-29T02:57:54.943Z,99726.16
2022-07-29T03:00:45.923Z,99714.00
2022-07-29T03:03:39.280Z,99726.03
2022-07-29T03:06:38.178Z,99721.97
2022-07-29T03:09:29.027Z,99717.88
2022-07-29T03:12:17.877Z,99718.66
2022-07-29T03:15:07.402Z,99706.44
2022-07-29T03:17:56.567Z,99722.50
2022-07-29T03:20:44.492Z,99716.63
2022-07-29T03:23:35.378Z,99714.59
2022-07-29T03:26:24.890Z,99716.88
2022-07-29T03:29:13.507Z,99735.44
2022-07-29T03:32:07.183Z,99730.56
2022-07-29T03:34:56.326Z,99707.75
2022-07-29T03:37:45.440Z,99710.03
2022-07-29T03:40:39.632Z,99719.44
2022-07-29T03:43:28.913Z,99718.47
2022-07-29T03:46:22.416Z,99704.19
2022-07-29T03:49:12.367Z,99707.84
2022-07-29T03:52:01.090Z,99707.16
2022-07-29T03:54:49.861Z,99694.91
2022-07-29T03:57:39.156Z,99688.28
2022-07-29T04:00:28.814Z,99703.81
2022-07-29T04:03:16.921Z,99677.53
2022-07-29T04:06:07.448Z,99694.59
2022-07-29T04:08:55.256Z,99708.38
2022-07-29T04:12:02.035Z,99710.38
2022-07-29T04:14:51.467Z,99711.09
2022-07-29T04:17:39.269Z,99701.38
2022-07-29T04:20:27.076Z,99682.19
2022-07-29T04:23:14.870Z,99710.03
2022-07-29T04:26:02.636Z,99725.28
2022-07-29T04:28:50.472Z,99712.81
2022-07-29T04:31:38.533Z,99724.28
2022-07-29T04:34:28.158Z,99716.09
2022-07-29T04:37:16.098Z,99728.09
2022-07-29T04:40:04.439Z,99723.44
2022-07-29T04:42:52.409Z,99712.72
2022-07-29T04:45:42.347Z,99716.84
2022-07-29T04:48:30.876Z,99718.06
2022-07-29T04:51:18.961Z,99719.34
2022-07-29T04:54:07.135Z,99727.22
2022-07-29T04:56:54.944Z,99692.19
2022-07-29T04:59:42.799Z,99715.84
2022-07-29T05:02:30.649Z,99719.88
2022-07-29T05:05:18.483Z,99718.84
2022-07-29T05:08:06.275Z,99726.59
2022-07-29T05:10:54.232Z,99717.19
2022-07-29T05:13:46.013Z,99723.50
2022-07-29T05:16:34.992Z,99727.94
2022-07-29T05:19:22.848Z,99739.50
2022-07-29T05:22:10.623Z,99746.44
2022-07-29T05:24:58.569Z,99738.31
2022-07-29T05:27:46.321Z,99734.50
2022-07-29T05:30:38.854Z,99718.41
2022-07-29T05:33:35.091Z,99740.09
2022-07-29T05:36:24.086Z,99724.00
2022-07-29T05:39:12.023Z,99732.16
2022-07-29T05:42:00.298Z,99743.13
2022-07-29T05:44:48.458Z,99752.47
2022-07-29T05:47:36.257Z,99739.91
2022-07-29T05:50:24.041Z,99737.00
2022-07-29T05:53:20.124Z,99721.44
2022-07-29T05:56:08.704Z,99738.97
2022-07-29T05:58:56.595Z,99746.13
2022-07-29T06:01:44.423Z,99732.19
2022-07-29T06:04:34.522Z,99746.44
2022-07-29T06:07:22.589Z,99743.09
2022-07-29T06:10:10.685Z,99747.44
2022-07-29T06:13:01.408Z,99744.25
2022-07-29T06:15:49.464Z,99748.22
2022-07-29T06:18:37.365Z,99760.50
2022-07-29T06:21:25.182Z,99742.66
2022-07-29T06:24:17.725Z,99744.78
2022-07-29T06:27:05.795Z,99729.06
2022-07-29T06:29:53.674Z,99758.66
2022-07-29T06:32:43.343Z,99744.53
2022-07-29T06:35:41.100Z,99736.50
2022-07-29T06:38:34.376Z,99750.16
2022-07-29T06:41:29.982Z,99737.78
2022-07-29T06:44:19.216Z,99737.97
2022-07-29T06:47:07.332Z,99732.38
2022-07-29T06:49:55.225Z,99733.81
2022-07-29T06:52:43.050Z,99747.16
2022-07-29T06:55:30.899Z,99745.81
2022-07-29T06:58:21.212Z,99746.53
2022-07-29T07:01:09.293Z,99751.31
2022-07-29T07:03:57.371Z,99750.72
2022-07-29T07:06:45.193Z,99770.69
2022-07-29T07:09:40.680Z,99775.25
2022-07-29T07:12:28.761Z,99773.22
2022-07-29T07:15:16.533Z,99773.84
2022-07-29T07:18:06.709Z,99779.66
2022-07-29T07:20:54.572Z,99778.97
2022-07-29T07:23:42.349Z,99773.22
2022-07-29T07:26:30.127Z,99778.34
2022-07-29T07:29:17.969Z,99767.28
2022-07-29T07:32:06.182Z,99761.59
2022-07-29T07:34:54.056Z,99776.97
2022-07-29T07:37:41.905Z,99770.72
2022-07-29T07:40:29.730Z,99773.34
2022-07-29T07:43:17.521Z,99760.81
2022-07-29T07:46:05.843Z,99779.81
2022-07-29T07:48:53.816Z,99779.06
2022-07-29T07:51:41.759Z,99785.84
2022-07-29T07:54:29.621Z,99768.88
2022-07-29T07:57:17.929Z,99775.72
2022-07-29T08:00:06.930Z,99778.47
2022-07-29T08:02:54.900Z,99772.09
2022-07-29T08:05:42.873Z,99778.94
2022-07-29T08:08:30.835Z,99776.66
2022-07-29T08:11:18.633Z,99760.41
2022-07-29T08:14:06.402Z,99770.44
2022-07-29T08:16:54.755Z,99754.13
2022-07-29T08:19:42.586Z,99773.91
2022-07-29T08:22:30.455Z,99774.75
2022-07-29T08:25:21.264Z,99774.38
2022-07-29T08:28:09.499Z,99772.50
2022-07-29T08:30:57.256Z,99774.22
2022-07-29T08:33:48.041Z,99771.94
2022-07-29T08:36:38.344Z,99758.31
2022-07-29T08:39:26.189Z,99768.19
2022-07-29T08:42:14.311Z,99757.72
2022-07-29T08:45:03.372Z,99774.03
2022-07-29T08:47:54.276Z,99775.59
2022-07-29T08:50:46.315Z,99778.72
2022-07-29T08:53:39.114Z,99766.16
2022-07-29T08:56:32.090Z,99743.25
2022-07-29T08:59:28.606Z,99765.72
2022-07-29T09:02:23.920Z,99770.16
2022-07-29T09:05:14.105Z,99777.59
2022-07-29T09:08:07.890Z,99767.28
2022-07-29T09:11:04.041Z,99767.56
2022-07-29T09:14:00.429Z,99766.00
2022-07-29T09:16:58.887Z,99782.94
2022-07-29T09:19:56.307Z,99765.59
2022-07-29T09:22:49.953Z,99769.59
2022-07-29T09:25:42.058Z,99761.53
2022-07-29T09:28:38.009Z,99756.38
2022-07-29T09:31:40.833Z,99761.38
2022-07-29T09:34:32.977Z,99762.63
2022-07-29T09:37:37.545Z,99745.25
2022-07-29T09:40:35.018Z,99760.44
2022-07-29T09:43:28.130Z,99749.63
2022-07-29T09:46:23.025Z,99736.69
2022-07-29T09:49:21.468Z,99750.06
2022-07-29T09:52:12.773Z,99742.13
2022-07-29T09:55:13.811Z,99730.41
2022-07-29T09:58:20.719Z,99756.78
2022-07-29T10:01:11.656Z,99753.28
2022-07-29T10:04:04.251Z,99737.31
2022-07-29T10:07:07.297Z,99739.00
2022-07-29T10:10:02.827Z,99729.47
2022-07-29T10:13:04.598Z,99739.72
2022-07-29T10:16:00.277Z,99731.28
2022-07-29T10:18:52.119Z,99741.28
2022-07-29T10:21:45.030Z,99733.34
2022-07-29T10:24:38.907Z,99735.38
2022-07-29T10:27:34.189Z,99729.69
2022-07-29T10:30:26.348Z,99734.28
2022-07-29T10:33:23.961Z,99739.44
2022-07-29T10:36:29.573Z,99727.38
2022-07-29T10:39:54.906Z,99731.88
2022-07-29T10:42:50.508Z,99733.97
2022-07-29T10:45:42.263Z,99737.69
2022-07-29T10:48:34.037Z,99732.94
2022-07-29T10:51:24.191Z,99729.31
2022-07-29T10:54:16.667Z,99727.44
2022-07-29T10:57:52.532Z,99723.84
2022-07-29T11:00:41.493Z,99710.94
2022-07-29T11:04:02.351Z,99711.41
2022-07-29T11:07:05.811Z,99719.16
2022-07-29T11:10:12.912Z,99712.75
2022-07-29T11:13:01.795Z,99700.50
2022-07-29T11:15:59.590Z,99702.03
2022-07-29T11:19:13.192Z,99707.16
2022-07-29T11:22:01.660Z,99702.53
2022-07-29T11:25:42.946Z,99702.53
2022-07-29T11:28:27.687Z,99696.56
2022-07-29T11:31:21.381Z,99694.25
2022-07-29T11:37:42.412Z,99702.28
2022-07-29T11:40:33.831Z,99696.47
2022-07-29T11:43:50.880Z,99700.69
2022-07-29T11:46:53.908Z,99697.59
2022-07-29T11:49:48.543Z,99701.78
2022-07-29T11:52:49.840Z,99703.59
2022-07-29T11:55:51.289Z,99685.53
2022-07-29T11:58:40.069Z,99691.75
2022-07-29T12:01:30.974Z,99694.47
2022-07-29T12:04:21.022Z,99681.31
2022-07-29T12:07:11.300Z,99668.63
2022-07-29T12:10:06.208Z,99680.97
2022-07-29T12:12:54.154Z,99671.00
2022-07-29T12:15:46.311Z,99659.03
2022-07-29T12:18:40.106Z,99662.13
2022-07-29T12:21:50.919Z,99664.38
2022-07-29T12:24:47.968Z,99660.66
2022-07-29T12:27:40.589Z,99634.09
2022-07-29T12:30:49.521Z,99650.41
2022-07-29T12:33:39.694Z,99645.13
2022-07-29T12:36:27.554Z,99644.38
2022-07-29T12:39:18.165Z,99651.19
2022-07-29T12:42:18.722Z,99643.69
2022-07-29T12:45:07.925Z,99648.13
2022-07-29T12:47:56.026Z,99639.28
2022-07-29T12:50:59.925Z,99631.75
2022-07-29T12:54:13.825Z,99635.69
2022-07-29T12:57:05.137Z,99625.03
2022-07-29T13:00:15.962Z,99614.69
2022-07-29T13:03:07.267Z,99612.97
2022-07-29T13:05:55.981Z,99603.94
2022-07-29T13:09:04.853Z,99619.63
2022-07-29T13:11:54.520Z,99617.03
2022-07-29T13:14:44.926Z,99625.16
2022-07-29T13:17:41.748Z,99633.47
2022-07-29T13:20:30.787Z,99624.09
2022-07-29T13:23:18.796Z,99630.94
2022-07-29T13:26:10.268Z,99618.88
2022-07-29T13:28:58.127Z,99615.81
2022-07-29T13:31:46.012Z,99618.59
2022-07-29T13:34:33.923Z,99615.41
2022-07-29T13:37:25.010Z,99614.03
2022-07-29T13:40:14.807Z,99612.47
2022-07-29T13:43:02.929Z,99614.97
2022-07-29T13:45:51.867Z,99607.97
2022-07-29T13:48:42.441Z,99595.78
2022-07-29T13:51:33.051Z,99605.16
2022-07-29T13:54:20.942Z,99593.63
2022-07-29T13:57:08.973Z,99590.59
2022-07-29T13:59:57.368Z,99610.06
2022-07-29T14:02:45.156Z,99603.84
2022-07-29T14:05:33.026Z,99619.13
2022-07-29T14:08:20.845Z,99613.16
2022-07-29T14:11:08.616Z,99618.94
2022-07-29T14:13:58.699Z,99614.06
2022-07-29T14:16:50.441Z,99589.91
2022-07-29T14:19:40.312Z,99617.22
2022-07-29T14:22:28.122Z,99620.50
2022-07-29T14:25:15.968Z,99618.75
2022-07-29T14:28:03.794Z,99633.13
2022-07-29T14:30:51.697Z,99645.16
2022-07-29T14:33:39.571Z,99620.63
2022-07-29T14:36:30.081Z,99628.66
2022-07-29T14:39:20.282Z,99636.28
2022-07-29T14:42:13.835Z,99626.66
2022-07-29T14:45:01.693Z,99630.63
2022-07-29T14:47:51.060Z,99647.69
2022-07-29T14:50:44.192Z,99642.59
2022-07-29T14:53:32.821Z,99643.16
2022-07-29T14:56:36.489Z,99640.88
2022-07-29T14:59:25.474Z,99650.16
2022-07-29T15:02:13.679Z,99633.69
2022-07-29T15:05:01.821Z,99626.84
2022-07-29T15:07:49.791Z,99635.94
2022-07-29T15:10:41.043Z,99628.56
2022-07-29T15:13:32.487Z,99630.63
2022-07-29T15:16:23.377Z,99623.22
2022-07-29T15:19:11.798Z,99624.19
2022-07-29T15:21:59.980Z,99606.66
2022-07-29T15:24:50.159Z,99634.97
2022-07-29T15:27:38.062Z,99631.75
2022-07-29T15:30:32.772Z,99624.19
2022-07-29T15:33:22.105Z,99631.78
2022-07-29T15:36:21.367Z,99635.97
2022-07-29T15:39:22.971Z,99643.16
2022-07-29T15:42:13.627Z,99646.22
2022-07-29T15:45:03.860Z,99647.16
2022-07-29T15:47:51.670Z,99635.41
2022-07-29T15:50:39.480Z,99649.03
2022-07-29T15:53:27.272Z,99640.72
2022-07-29T15:56:15.104Z,99649.63
2022-07-29T15:59:02.960Z,99647.72
2022-07-29T16:01:50.903Z,99647.34
2022-07-29T16:04:38.789Z,99651.16
2022-07-29T16:07:31.441Z,99640.50
2022-07-29T16:10:20.439Z,99671.41
2022-07-29T16:13:08.206Z,99666.47
2022-07-29T16:16:01.919Z,99672.88
2022-07-29T16:18:50.286Z,99647.84
2022-07-29T16:21:38.949Z,99657.53
2022-07-29T16:24:29.697Z,99658.69
2022-07-29T16:27:17.509Z,99653.00
2022-07-29T16:30:09.531Z,99656.59
2022-07-29T16:32:57.313Z,99650.72
2022-07-29T16:35:45.171Z,99653.38
2022-07-29T16:38:33.001Z,99645.44
2022-07-29T16:41:20.813Z,99674.03
2022-07-29T16:44:08.584Z,99676.00
2022-07-29T16:46:58.765Z,99685.16
2022-07-29T16:49:47.377Z,99686.25
2022-07-29T16:52:35.988Z,99701.03
2022-07-29T16:55:24.095Z,99689.34
2022-07-29T16:58:12.166Z,99676.84
2022-07-29T17:00:59.975Z,99666.22
2022-07-29T17:04:06.295Z,99695.91
2022-07-29T17:06:54.262Z,99687.03
2022-07-29T17:09:42.330Z,99693.59
2022-07-29T17:12:30.290Z,99687.50
2022-07-29T17:15:18.605Z,99693.78
2022-07-29T17:18:12.371Z,99696.75
2022-07-29T17:21:00.742Z,99699.13
2022-07-29T17:23:49.409Z,99710.66
2022-07-29T17:26:37.183Z,99708.69
2022-07-29T17:29:25.249Z,99723.31
2022-07-29T17:32:14.050Z,99722.03
2022-07-29T17:35:02.131Z,99726.72
2022-07-29T17:37:54.367Z,99730.81
2022-07-29T17:40:42.698Z,99736.00
2022-07-29T17:43:30.541Z,99747.06
2022-07-29T17:46:19.885Z,99751.28
2022-07-29T17:49:07.970Z,99754.34
2022-07-29T17:52:00.479Z,99779.91
2022-07-29T17:54:49.187Z,99777.22
2022-07-29T17:57:37.304Z,99766.72
2022-07-29T18:00:26.287Z,99798.53
2022-07-29T18:03:15.124Z,99800.38
2022-07-29T18:06:03.519Z,99804.28
2022-07-29T18:08:51.472Z,99773.72
2022-07-29T18:11:39.218Z,99770.13
2022-07-29T18:14:32.322Z,99760.16
2022-07-29T18:17:20.103Z,99753.00
2022-07-29T18:20:08.489Z,99772.28
2022-07-29T18:22:56.466Z,99762.69
2022-07-29T18:25:44.264Z,99806.38
2022-07-29T18:28:32.785Z,99808.97
2022-07-29T18:31:20.643Z,99829.22
2022-07-29T18:34:08.727Z,99821.28
2022-07-29T18:36:57.161Z,99821.72
2022-07-29T18:39:45.125Z,99819.25
2022-07-29T18:42:32.921Z,99829.31
2022-07-29T18:45:20.827Z,99827.13
2022-07-29T18:48:12.856Z,99825.41
2022-07-29T18:51:01.747Z,99820.84
2022-07-29T18:53:49.536Z,99811.75
2022-07-29T18:56:37.534Z,99819.63
2022-07-29T18:59:25.580Z,99816.59
2022-07-29T19:02:13.657Z,99820.41
2022-07-29T19:05:01.677Z,99826.03
2022-07-29T19:07:49.558Z,99839.09
2022-07-29T19:10:37.360Z,99844.81
2022-07-29T19:13:25.203Z,99843.88
2022-07-29T19:16:14.113Z,99833.13
2022-07-29T19:19:02.139Z,99826.25
2022-07-29T19:21:49.911Z,99829.94
2022-07-29T19:24:37.693Z,99839.03
2022-07-29T19:27:25.988Z,99821.84
2022-07-29T19:30:13.836Z,99841.66
2022-07-29T19:33:01.628Z,99850.22
2022-07-29T19:35:54.560Z,99850.25
2022-07-29T19:38:42.837Z,99865.56
2022-07-29T19:41:31.161Z,99872.50
2022-07-29T19:44:19.209Z,99876.41
2022-07-29T19:47:07.059Z,99864.41
2022-07-29T19:49:54.912Z,99867.72
2022-07-29T19:52:43.918Z,99883.25
2022-07-29T19:55:31.931Z,99895.78
2022-07-29T19:58:19.787Z,99892.69
2022-07-29T20:01:11.392Z,99870.97
2022-07-29T20:03:59.199Z,99896.16
2022-07-29T20:06:49.421Z,99867.56
2022-07-29T20:09:37.319Z,99893.09
2022-07-29T20:12:25.349Z,99900.25
2022-07-29T20:15:16.489Z,99897.81
2022-07-29T20:18:04.693Z,99904.78
2022-07-29T20:20:53.832Z,99913.97
2022-07-29T20:23:41.593Z,99922.69
2022-07-29T20:26:29.404Z,99910.97
2022-07-29T20:29:17.191Z,99932.88
2022-07-29T20:32:05.737Z,99926.00
2022-07-29T20:34:53.658Z,99927.16
2022-07-29T20:37:52.508Z,99926.41
2022-07-29T20:40:44.521Z,99930.72
2022-07-29T20:43:36.105Z,99933.97
2022-07-29T20:46:27.053Z,99941.03
2022-07-29T20:49:14.892Z,99937.69
2022-07-29T20:52:03.940Z,99938.69
2022-07-29T20:54:51.941Z,99941.25
2022-07-29T20:57:40.082Z,99941.94
2022-07-29T21:00:28.674Z,99935.06
2022-07-29T21:03:18.201Z,99927.19
2022-07-29T21:06:06.249Z,99927.66
2022-07-29T21:08:55.737Z,99917.34
2022-07-29T21:11:45.096Z,99924.88
2022-07-29T21:14:36.002Z,99945.28
2022-07-29T21:17:23.979Z,99926.97
2022-07-29T21:20:13.613Z,99955.28
2022-07-29T21:23:01.426Z,99951.22
2022-07-29T21:25:49.297Z,99961.22
2022-07-29T21:28:39.942Z,99928.38
2022-07-29T21:31:28.296Z,99947.00
2022-07-29T21:34:16.169Z,99946.72
2022-07-29T21:37:04.360Z,99947.19
2022-07-29T21:39:54.727Z,99942.06
2022-07-29T21:42:42.613Z,99949.94
2022-07-29T21:45:33.388Z,99948.16
2022-07-29T21:48:24.017Z,99935.59
2022-07-29T21:51:11.996Z,99915.69
2022-07-29T21:53:59.764Z,99919.63
2022-07-29T21:56:51.115Z,99922.84
2022-07-29T21:59:39.179Z,99923.19
2022-07-29T22:02:26.969Z,99916.06
2022-07-29T22:05:14.942Z,99939.59
2022-07-29T22:08:03.606Z,99925.78
2022-07-29T22:10:51.370Z,99929.06
2022-07-29T22:13:39.149Z,99936.75
2022-07-29T22:16:27.097Z,99923.44
2022-07-29T22:19:15.394Z,99926.78
2022-07-29T22:22:03.184Z,99934.19
2022-07-29T22:24:51.028Z,99941.09
2022-07-29T22:27:39.190Z,99928.81
2022-07-29T22:30:27.098Z,99928.56
2022-07-29T22:33:17.451Z,99923.91
2022-07-29T22:36:06.331Z,99936.94
2022-07-29T22:38:54.118Z,99923.88
2022-07-29T22:41:41.947Z,99955.06
2022-07-29T22:44:29.763Z,99953.03
2022-07-29T22:47:17.556Z,99937.97
2022-07-29T22:50:06.298Z,99952.31
2022-07-29T22:52:54.061Z,99920.88
2022-07-29T22:55:41.938Z,99953.88
2022-07-29T22:58:29.746Z,99946.72
2022-07-29T23:01:35.800Z,99939.88
2022-07-29T23:04:25.898Z,99940.09
2022-07-29T23:07:13.868Z,99913.28
2022-07-29T23:10:01.955Z,99936.78
2022-07-29T23:12:49.777Z,99946.50
2022-07-29T23:15:38.022Z,99955.44
2022-07-29T23:18:26.064Z,99945.19
2022-07-29T23:21:14.140Z,99955.94
2022-07-29T23:24:02.009Z,99941.66
2022-07-29T23:26:49.777Z,99954.94
2022-07-29T23:29:39.278Z,99957.75
2022-07-29T23:32:27.211Z,99977.44
2022-07-29T23:35:14.967Z,99962.34
2022-07-29T23:38:02.802Z,99965.84
2022-07-29T23:40:51.362Z,99962.28
2022-07-29T23:43:39.211Z,99964.81
2022-07-29T23:46:27.216Z,99961.97
2022-07-29T23:49:15.139Z,99956.91
2022-07-29T23:52:03.276Z,99961.75
2022-07-29T23:54:51.175Z,99958.97
2022-07-29T23:57:39.131Z,99942.88
